sensor_id;sensor_type;location;lat;lon;timestamp;P1;durP1;ratioP1;P2;durP2;ratioP2
30872;SDS011;17579;42.690;2.586;2023-03-01T00:00:37;5.35;;;4.40;;
30872;SDS011;17579;42.690;2.586;2023-03-01T00:03:02;5.28;;;4.75;;
30872;SDS011;17579;42.690;2.586;2023-03-01T00:05:28;6.28;;;4.60;;
30872;SDS011;17579;42.690;2.586;2023-03-01T00:07:53;4.38;;;3.97;;
30872;SDS011;17579;42.690;2.586;2023-03-01T00:10:19;5.53;;;4.60;;
30872;SDS011;17579;42.690;2.586;2023-03-01T00:12:45;6.50;;;4.03;;
30872;SDS011;17579;42.690;2.586;2023-03-01T00:15:10;5.70;;;4.18;;
30872;SDS011;17579;42.690;2.586;2023-03-01T00:17:36;5.10;;;3.63;;
30872;SDS011;17579;42.690;2.586;2023-03-01T00:20:02;4.50;;;3.88;;
30872;SDS011;17579;42.690;2.586;2023-03-01T00:22:28;7.20;;;4.18;;
30872;SDS011;17579;42.690;2.586;2023-03-01T00:24:54;5.15;;;4.43;;
30872;SDS011;17579;42.690;2.586;2023-03-01T00:27:19;4.22;;;3.63;;
30872;SDS011;17579;42.690;2.586;2023-03-01T00:29:45;6.05;;;4.05;;
30872;SDS011;17579;42.690;2.586;2023-03-01T00:32:10;6.50;;;4.53;;
30872;SDS011;17579;42.690;2.586;2023-03-01T00:34:36;6.53;;;4.10;;
30872;SDS011;17579;42.690;2.586;2023-03-01T00:37:02;5.65;;;4.18;;
30872;SDS011;17579;42.690;2.586;2023-03-01T00:39:30;4.70;;;4.20;;
30872;SDS011;17579;42.690;2.586;2023-03-01T00:41:56;5.22;;;4.55;;
30872;SDS011;17579;42.690;2.586;2023-03-01T00:44:22;5.78;;;4.28;;
30872;SDS011;17579;42.690;2.586;2023-03-01T00:46:48;4.20;;;3.63;;
30872;SDS011;17579;42.690;2.586;2023-03-01T00:49:13;6.22;;;4.13;;
30872;SDS011;17579;42.690;2.586;2023-03-01T00:51:39;4.53;;;4.03;;
30872;SDS011;17579;42.690;2.586;2023-03-01T00:54:07;5.55;;;4.30;;
30872;SDS011;17579;42.690;2.586;2023-03-01T00:56:33;5.15;;;4.65;;
30872;SDS011;17579;42.690;2.586;2023-03-01T00:59:00;5.20;;;4.53;;
30872;SDS011;17579;42.690;2.586;2023-03-01T01:01:27;6.07;;;4.18;;
30872;SDS011;17579;42.690;2.586;2023-03-01T01:03:55;4.95;;;4.40;;
30872;SDS011;17579;42.690;2.586;2023-03-01T01:06:24;7.55;;;5.10;;
30872;SDS011;17579;42.690;2.586;2023-03-01T01:08:53;5.90;;;4.97;;
30872;SDS011;17579;42.690;2.586;2023-03-01T01:11:20;5.60;;;4.97;;
30872;SDS011;17579;42.690;2.586;2023-03-01T01:13:48;5.85;;;4.18;;
30872;SDS011;17579;42.690;2.586;2023-03-01T01:16:15;5.03;;;4.50;;
30872;SDS011;17579;42.690;2.586;2023-03-01T01:18:41;5.72;;;4.38;;
30872;SDS011;17579;42.690;2.586;2023-03-01T01:21:08;5.18;;;4.50;;
30872;SDS011;17579;42.690;2.586;2023-03-01T01:23:36;4.88;;;3.83;;
30872;SDS011;17579;42.690;2.586;2023-03-01T01:26:03;5.65;;;4.60;;
30872;SDS011;17579;42.690;2.586;2023-03-01T01:28:30;6.10;;;4.63;;
30872;SDS011;17579;42.690;2.586;2023-03-01T01:30:56;5.30;;;4.50;;
30872;SDS011;17579;42.690;2.586;2023-03-01T01:33:21;6.78;;;5.32;;
30872;SDS011;17579;42.690;2.586;2023-03-01T01:35:47;6.07;;;4.55;;
30872;SDS011;17579;42.690;2.586;2023-03-01T01:38:12;6.45;;;5.03;;
30872;SDS011;17579;42.690;2.586;2023-03-01T01:43:07;5.47;;;4.90;;
30872;SDS011;17579;42.690;2.586;2023-03-01T01:45:42;5.10;;;4.60;;
30872;SDS011;17579;42.690;2.586;2023-03-01T01:48:10;5.10;;;4.60;;
30872;SDS011;17579;42.690;2.586;2023-03-01T01:50:41;5.90;;;4.53;;
30872;SDS011;17579;42.690;2.586;2023-03-01T01:53:11;5.43;;;4.82;;
30872;SDS011;17579;42.690;2.586;2023-03-01T01:55:42;5.57;;;4.88;;
30872;SDS011;17579;42.690;2.586;2023-03-01T01:58:11;5.80;;;4.88;;
30872;SDS011;17579;42.690;2.586;2023-03-01T02:00:40;6.65;;;5.10;;
30872;SDS011;17579;42.690;2.586;2023-03-01T02:03:08;6.18;;;5.10;;
30872;SDS011;17579;42.690;2.586;2023-03-01T02:05:42;6.25;;;4.85;;
30872;SDS011;17579;42.690;2.586;2023-03-01T02:08:13;7.50;;;4.97;;
30872;SDS011;17579;42.690;2.586;2023-03-01T02:10:41;5.03;;;4.60;;
30872;SDS011;17579;42.690;2.586;2023-03-01T02:13:07;4.78;;;4.25;;
30872;SDS011;17579;42.690;2.586;2023-03-01T02:15:34;5.65;;;5.13;;
30872;SDS011;17579;42.690;2.586;2023-03-01T02:18:02;6.78;;;4.90;;
30872;SDS011;17579;42.690;2.586;2023-03-01T02:23:23;5.78;;;5.03;;
30872;SDS011;17579;42.690;2.586;2023-03-01T02:25:51;5.78;;;4.80;;
30872;SDS011;17579;42.690;2.586;2023-03-01T02:28:24;5.25;;;4.75;;
30872;SDS011;17579;42.690;2.586;2023-03-01T02:30:55;6.07;;;5.03;;
30872;SDS011;17579;42.690;2.586;2023-03-01T02:33:21;6.97;;;5.10;;
30872;SDS011;17579;42.690;2.586;2023-03-01T02:35:47;5.25;;;4.35;;
30872;SDS011;17579;42.690;2.586;2023-03-01T02:38:12;5.22;;;4.53;;
30872;SDS011;17579;42.690;2.586;2023-03-01T02:40:38;6.07;;;4.90;;
30872;SDS011;17579;42.690;2.586;2023-03-01T02:43:06;5.50;;;4.90;;
30872;SDS011;17579;42.690;2.586;2023-03-01T02:45:35;6.32;;;5.00;;
30872;SDS011;17579;42.690;2.586;2023-03-01T02:48:00;5.50;;;4.93;;
30872;SDS011;17579;42.690;2.586;2023-03-01T02:50:42;8.13;;;5.18;;
30872;SDS011;17579;42.690;2.586;2023-03-01T02:53:17;6.57;;;5.35;;
30872;SDS011;17579;42.690;2.586;2023-03-01T02:55:52;7.22;;;5.10;;
30872;SDS011;17579;42.690;2.586;2023-03-01T02:58:19;5.32;;;4.40;;
30872;SDS011;17579;42.690;2.586;2023-03-01T03:00:44;8.93;;;5.03;;
30872;SDS011;17579;42.690;2.586;2023-03-01T03:03:13;5.85;;;4.70;;
30872;SDS011;17579;42.690;2.586;2023-03-01T03:05:40;4.80;;;4.30;;
30872;SDS011;17579;42.690;2.586;2023-03-01T03:08:05;6.00;;;4.57;;
30872;SDS011;17579;42.690;2.586;2023-03-01T03:10:33;5.70;;;4.70;;
30872;SDS011;17579;42.690;2.586;2023-03-01T03:13:02;6.40;;;5.13;;
30872;SDS011;17579;42.690;2.586;2023-03-01T03:15:30;5.20;;;4.70;;
30872;SDS011;17579;42.690;2.586;2023-03-01T03:17:56;6.18;;;4.50;;
30872;SDS011;17579;42.690;2.586;2023-03-01T03:20:24;5.80;;;4.80;;
30872;SDS011;17579;42.690;2.586;2023-03-01T03:22:53;6.37;;;4.53;;
30872;SDS011;17579;42.690;2.586;2023-03-01T03:25:20;5.47;;;4.70;;
30872;SDS011;17579;42.690;2.586;2023-03-01T03:27:47;6.05;;;5.07;;
30872;SDS011;17579;42.690;2.586;2023-03-01T03:30:15;5.53;;;4.30;;
30872;SDS011;17579;42.690;2.586;2023-03-01T03:32:43;7.43;;;4.90;;
30872;SDS011;17579;42.690;2.586;2023-03-01T03:35:17;8.30;;;4.57;;
30872;SDS011;17579;42.690;2.586;2023-03-01T03:37:45;7.07;;;5.20;;
30872;SDS011;17579;42.690;2.586;2023-03-01T03:40:11;6.47;;;4.78;;
30872;SDS011;17579;42.690;2.586;2023-03-01T03:42:40;6.00;;;4.43;;
30872;SDS011;17579;42.690;2.586;2023-03-01T03:45:06;6.28;;;5.05;;
30872;SDS011;17579;42.690;2.586;2023-03-01T03:47:32;5.95;;;5.00;;
30872;SDS011;17579;42.690;2.586;2023-03-01T03:49:58;6.72;;;4.72;;
30872;SDS011;17579;42.690;2.586;2023-03-01T03:52:29;5.90;;;4.67;;
30872;SDS011;17579;42.690;2.586;2023-03-01T03:54:55;6.35;;;4.80;;
30872;SDS011;17579;42.690;2.586;2023-03-01T03:57:20;5.47;;;4.97;;
30872;SDS011;17579;42.690;2.586;2023-03-01T03:59:46;8.40;;;4.88;;
30872;SDS011;17579;42.690;2.586;2023-03-01T04:02:12;6.00;;;4.93;;
30872;SDS011;17579;42.690;2.586;2023-03-01T04:04:37;7.03;;;5.30;;
30872;SDS011;17579;42.690;2.586;2023-03-01T04:07:03;5.95;;;4.97;;
30872;SDS011;17579;42.690;2.586;2023-03-01T04:09:28;5.60;;;4.60;;
30872;SDS011;17579;42.690;2.586;2023-03-01T04:11:55;5.38;;;4.80;;
30872;SDS011;17579;42.690;2.586;2023-03-01T04:14:21;7.63;;;4.72;;
30872;SDS011;17579;42.690;2.586;2023-03-01T04:16:46;5.30;;;4.60;;
30872;SDS011;17579;42.690;2.586;2023-03-01T04:19:12;6.40;;;5.20;;
30872;SDS011;17579;42.690;2.586;2023-03-01T04:21:40;6.18;;;5.07;;
30872;SDS011;17579;42.690;2.586;2023-03-01T04:24:05;5.47;;;4.97;;
30872;SDS011;17579;42.690;2.586;2023-03-01T04:26:31;6.07;;;5.07;;
30872;SDS011;17579;42.690;2.586;2023-03-01T04:28:57;6.85;;;5.60;;
30872;SDS011;17579;42.690;2.586;2023-03-01T04:31:22;5.93;;;4.82;;
30872;SDS011;17579;42.690;2.586;2023-03-01T04:33:49;6.40;;;4.72;;
30872;SDS011;17579;42.690;2.586;2023-03-01T04:36:17;4.57;;;4.18;;
30872;SDS011;17579;42.690;2.586;2023-03-01T04:38:44;8.55;;;4.90;;
30872;SDS011;17579;42.690;2.586;2023-03-01T04:41:12;6.43;;;5.00;;
30872;SDS011;17579;42.690;2.586;2023-03-01T04:43:39;6.07;;;4.90;;
30872;SDS011;17579;42.690;2.586;2023-03-01T04:46:06;5.53;;;4.90;;
30872;SDS011;17579;42.690;2.586;2023-03-01T04:48:35;6.22;;;5.30;;
30872;SDS011;17579;42.690;2.586;2023-03-01T04:51:02;7.85;;;4.88;;
30872;SDS011;17579;42.690;2.586;2023-03-01T04:53:28;5.90;;;4.85;;
30872;SDS011;17579;42.690;2.586;2023-03-01T04:55:55;5.57;;;4.85;;
30872;SDS011;17579;42.690;2.586;2023-03-01T04:58:22;6.00;;;4.78;;
30872;SDS011;17579;42.690;2.586;2023-03-01T05:00:49;5.25;;;4.75;;
30872;SDS011;17579;42.690;2.586;2023-03-01T05:03:14;6.20;;;4.63;;
30872;SDS011;17579;42.690;2.586;2023-03-01T05:05:43;5.78;;;4.30;;
30872;SDS011;17579;42.690;2.586;2023-03-01T05:08:10;5.20;;;4.35;;
30872;SDS011;17579;42.690;2.586;2023-03-01T05:10:37;5.07;;;4.25;;
30872;SDS011;17579;42.690;2.586;2023-03-01T05:13:03;5.43;;;4.55;;
30872;SDS011;17579;42.690;2.586;2023-03-01T05:15:29;6.80;;;4.82;;
30872;SDS011;17579;42.690;2.586;2023-03-01T05:17:57;5.20;;;4.43;;
30872;SDS011;17579;42.690;2.586;2023-03-01T05:20:24;6.78;;;5.03;;
30872;SDS011;17579;42.690;2.586;2023-03-01T05:22:51;5.60;;;4.43;;
30872;SDS011;17579;42.690;2.586;2023-03-01T05:25:19;5.57;;;4.88;;
30872;SDS011;17579;42.690;2.586;2023-03-01T05:27:46;5.45;;;4.35;;
30872;SDS011;17579;42.690;2.586;2023-03-01T05:30:12;4.90;;;4.18;;
30872;SDS011;17579;42.690;2.586;2023-03-01T05:32:40;5.70;;;5.10;;
30872;SDS011;17579;42.690;2.586;2023-03-01T05:35:06;5.50;;;4.70;;
30872;SDS011;17579;42.690;2.586;2023-03-01T05:37:32;5.30;;;4.65;;
30872;SDS011;17579;42.690;2.586;2023-03-01T05:39:58;4.53;;;4.13;;
30872;SDS011;17579;42.690;2.586;2023-03-01T05:42:23;5.28;;;4.78;;
30872;SDS011;17579;42.690;2.586;2023-03-01T05:44:49;5.22;;;4.72;;
30872;SDS011;17579;42.690;2.586;2023-03-01T05:47:14;5.38;;;4.43;;
30872;SDS011;17579;42.690;2.586;2023-03-01T05:49:40;6.25;;;4.35;;
30872;SDS011;17579;42.690;2.586;2023-03-01T05:52:11;4.85;;;4.45;;
30872;SDS011;17579;42.690;2.586;2023-03-01T05:54:37;5.10;;;4.20;;
30872;SDS011;17579;42.690;2.586;2023-03-01T05:57:03;6.70;;;4.35;;
30872;SDS011;17579;42.690;2.586;2023-03-01T05:59:29;4.78;;;4.38;;
30872;SDS011;17579;42.690;2.586;2023-03-01T06:01:54;5.43;;;4.83;;
30872;SDS011;17579;42.690;2.586;2023-03-01T06:04:20;6.82;;;4.85;;
30872;SDS011;17579;42.690;2.586;2023-03-01T06:06:46;9.00;;;4.68;;
30872;SDS011;17579;42.690;2.586;2023-03-01T06:09:11;6.40;;;4.78;;
30872;SDS011;17579;42.690;2.586;2023-03-01T06:11:37;5.20;;;4.70;;
30872;SDS011;17579;42.690;2.586;2023-03-01T06:14:03;5.63;;;4.65;;
30872;SDS011;17579;42.690;2.586;2023-03-01T06:16:31;5.15;;;4.65;;
30872;SDS011;17579;42.690;2.586;2023-03-01T06:18:57;7.03;;;4.67;;
30872;SDS011;17579;42.690;2.586;2023-03-01T06:21:22;6.97;;;5.03;;
30872;SDS011;17579;42.690;2.586;2023-03-01T06:23:48;6.30;;;5.03;;
30872;SDS011;17579;42.690;2.586;2023-03-01T06:26:13;5.80;;;4.30;;
30872;SDS011;17579;42.690;2.586;2023-03-01T06:28:39;6.20;;;5.13;;
30872;SDS011;17579;42.690;2.586;2023-03-01T06:31:04;6.35;;;4.88;;
30872;SDS011;17579;42.690;2.586;2023-03-01T06:33:33;4.82;;;4.15;;
30872;SDS011;17579;42.690;2.586;2023-03-01T06:35:59;5.60;;;4.93;;
30872;SDS011;17579;42.690;2.586;2023-03-01T06:38:24;6.20;;;5.25;;
30872;SDS011;17579;42.690;2.586;2023-03-01T06:43:17;6.53;;;4.43;;
30872;SDS011;17579;42.690;2.586;2023-03-01T06:45:43;4.90;;;4.28;;
30872;SDS011;17579;42.690;2.586;2023-03-01T06:48:09;7.27;;;4.50;;
30872;SDS011;17579;42.690;2.586;2023-03-01T06:50:34;7.80;;;4.82;;
30872;SDS011;17579;42.690;2.586;2023-03-01T06:53:00;6.13;;;5.03;;
30872;SDS011;17579;42.690;2.586;2023-03-01T06:55:26;5.60;;;4.57;;
30872;SDS011;17579;42.690;2.586;2023-03-01T07:00:19;6.00;;;4.75;;
30872;SDS011;17579;42.690;2.586;2023-03-01T07:02:45;5.80;;;5.05;;
30872;SDS011;17579;42.690;2.586;2023-03-01T07:05:11;5.00;;;4.50;;
30872;SDS011;17579;42.690;2.586;2023-03-01T07:07:36;6.88;;;5.15;;
30872;SDS011;17579;42.690;2.586;2023-03-01T07:10:02;5.72;;;4.60;;
30872;SDS011;17579;42.690;2.586;2023-03-01T07:12:28;6.68;;;5.30;;
30872;SDS011;17579;42.690;2.586;2023-03-01T07:14:53;7.18;;;5.05;;
30872;SDS011;17579;42.690;2.586;2023-03-01T07:17:19;5.80;;;4.88;;
30872;SDS011;17579;42.690;2.586;2023-03-01T07:19:45;7.57;;;5.05;;
30872;SDS011;17579;42.690;2.586;2023-03-01T07:22:10;6.07;;;5.05;;
30872;SDS011;17579;42.690;2.586;2023-03-01T07:24:36;5.80;;;5.20;;
30872;SDS011;17579;42.690;2.586;2023-03-01T07:27:02;5.95;;;4.82;;
30872;SDS011;17579;42.690;2.586;2023-03-01T07:29:27;5.28;;;4.75;;
30872;SDS011;17579;42.690;2.586;2023-03-01T07:31:54;5.38;;;4.82;;
30872;SDS011;17579;42.690;2.586;2023-03-01T07:34:19;7.55;;;4.90;;
30872;SDS011;17579;42.690;2.586;2023-03-01T07:36:45;5.13;;;4.63;;
30872;SDS011;17579;42.690;2.586;2023-03-01T07:39:11;6.78;;;4.57;;
30872;SDS011;17579;42.690;2.586;2023-03-01T07:41:37;5.82;;;4.55;;
30872;SDS011;17579;42.690;2.586;2023-03-01T07:44:03;6.35;;;4.72;;
30872;SDS011;17579;42.690;2.586;2023-03-01T07:46:29;6.65;;;5.32;;
30872;SDS011;17579;42.690;2.586;2023-03-01T07:48:55;7.25;;;4.88;;
30872;SDS011;17579;42.690;2.586;2023-03-01T07:51:20;8.73;;;4.90;;
30872;SDS011;17579;42.690;2.586;2023-03-01T07:53:46;7.13;;;4.90;;
30872;SDS011;17579;42.690;2.586;2023-03-01T07:56:13;5.18;;;4.65;;
30872;SDS011;17579;42.690;2.586;2023-03-01T07:58:41;6.50;;;4.93;;
30872;SDS011;17579;42.690;2.586;2023-03-01T08:01:09;5.55;;;4.30;;
30872;SDS011;17579;42.690;2.586;2023-03-01T08:03:36;5.93;;;5.30;;
30872;SDS011;17579;42.690;2.586;2023-03-01T08:06:03;6.55;;;4.90;;
30872;SDS011;17579;42.690;2.586;2023-03-01T08:08:30;5.20;;;4.70;;
30872;SDS011;17579;42.690;2.586;2023-03-01T08:10:56;6.00;;;4.53;;
30872;SDS011;17579;42.690;2.586;2023-03-01T08:13:23;5.57;;;4.35;;
30872;SDS011;17579;42.690;2.586;2023-03-01T08:15:49;6.13;;;5.03;;
30872;SDS011;17579;42.690;2.586;2023-03-01T08:18:16;6.05;;;5.03;;
30872;SDS011;17579;42.690;2.586;2023-03-01T08:20:42;4.75;;;4.22;;
30872;SDS011;17579;42.690;2.586;2023-03-01T08:23:08;5.60;;;4.85;;
30872;SDS011;17579;42.690;2.586;2023-03-01T08:25:34;6.22;;;5.15;;
30872;SDS011;17579;42.690;2.586;2023-03-01T08:27:59;5.65;;;4.65;;
30872;SDS011;17579;42.690;2.586;2023-03-01T08:30:25;5.28;;;4.05;;
30872;SDS011;17579;42.690;2.586;2023-03-01T08:32:51;5.50;;;4.63;;
30872;SDS011;17579;42.690;2.586;2023-03-01T08:35:17;5.47;;;4.35;;
30872;SDS011;17579;42.690;2.586;2023-03-01T08:37:44;6.00;;;4.82;;
30872;SDS011;17579;42.690;2.586;2023-03-01T08:40:10;7.25;;;4.47;;
30872;SDS011;17579;42.690;2.586;2023-03-01T08:42:36;6.60;;;4.57;;
30872;SDS011;17579;42.690;2.586;2023-03-01T08:45:02;5.43;;;4.32;;
30872;SDS011;17579;42.690;2.586;2023-03-01T08:47:28;6.53;;;4.72;;
30872;SDS011;17579;42.690;2.586;2023-03-01T08:49:54;5.65;;;4.53;;
30872;SDS011;17579;42.690;2.586;2023-03-01T08:52:20;5.53;;;4.55;;
30872;SDS011;17579;42.690;2.586;2023-03-01T08:54:47;5.55;;;4.70;;
30872;SDS011;17579;42.690;2.586;2023-03-01T08:57:13;5.22;;;4.68;;
30872;SDS011;17579;42.690;2.586;2023-03-01T08:59:38;5.15;;;4.65;;
30872;SDS011;17579;42.690;2.586;2023-03-01T09:02:05;4.55;;;3.95;;
30872;SDS011;17579;42.690;2.586;2023-03-01T09:04:36;6.13;;;4.70;;
30872;SDS011;17579;42.690;2.586;2023-03-01T09:07:02;4.47;;;3.90;;
30872;SDS011;17579;42.690;2.586;2023-03-01T09:09:27;4.30;;;3.95;;
30872;SDS011;17579;42.690;2.586;2023-03-01T09:11:53;6.93;;;4.53;;
30872;SDS011;17579;42.690;2.586;2023-03-01T09:14:18;4.72;;;3.92;;
30872;SDS011;17579;42.690;2.586;2023-03-01T09:16:44;5.35;;;4.50;;
30872;SDS011;17579;42.690;2.586;2023-03-01T09:19:10;5.13;;;4.40;;
30872;SDS011;17579;42.690;2.586;2023-03-01T09:21:36;4.70;;;4.18;;
30872;SDS011;17579;42.690;2.586;2023-03-01T09:24:02;5.75;;;4.63;;
30872;SDS011;17579;42.690;2.586;2023-03-01T09:26:28;4.63;;;3.95;;
30872;SDS011;17579;42.690;2.586;2023-03-01T09:28:55;4.90;;;4.50;;
30872;SDS011;17579;42.690;2.586;2023-03-01T09:31:21;5.43;;;4.68;;
30872;SDS011;17579;42.690;2.586;2023-03-01T09:33:49;4.88;;;4.35;;
30872;SDS011;17579;42.690;2.586;2023-03-01T09:36:18;5.05;;;4.55;;
30872;SDS011;17579;42.690;2.586;2023-03-01T09:38:46;6.38;;;4.28;;
30872;SDS011;17579;42.690;2.586;2023-03-01T09:46:25;9.15;;;4.90;;
30872;SDS011;17579;42.690;2.586;2023-03-01T09:48:55;6.65;;;4.90;;
30872;SDS011;17579;42.690;2.586;2023-03-01T09:53:52;6.93;;;4.93;;
30872;SDS011;17579;42.690;2.586;2023-03-01T09:56:22;5.35;;;4.63;;
30872;SDS011;17579;42.690;2.586;2023-03-01T10:02:10;5.30;;;4.68;;
30872;SDS011;17579;42.690;2.586;2023-03-01T10:04:45;6.35;;;4.70;;
30872;SDS011;17579;42.690;2.586;2023-03-01T10:09:59;6.40;;;4.30;;
30872;SDS011;17579;42.690;2.586;2023-03-01T10:17:41;4.95;;;4.45;;
30872;SDS011;17579;42.690;2.586;2023-03-01T10:23:03;4.50;;;3.70;;
30872;SDS011;17579;42.690;2.586;2023-03-01T10:25:35;5.00;;;4.20;;
30872;SDS011;17579;42.690;2.586;2023-03-01T10:28:05;5.45;;;4.30;;
30872;SDS011;17579;42.690;2.586;2023-03-01T10:30:41;4.85;;;4.20;;
30872;SDS011;17579;42.690;2.586;2023-03-01T10:33:17;5.47;;;4.47;;
30872;SDS011;17579;42.690;2.586;2023-03-01T10:35:47;4.65;;;4.25;;
30872;SDS011;17579;42.690;2.586;2023-03-01T10:38:14;4.72;;;4.18;;
30872;SDS011;17579;42.690;2.586;2023-03-01T10:40:56;4.25;;;3.75;;
30872;SDS011;17579;42.690;2.586;2023-03-01T10:43:25;6.30;;;4.22;;
30872;SDS011;17579;42.690;2.586;2023-03-01T10:45:55;5.90;;;4.57;;
30872;SDS011;17579;42.690;2.586;2023-03-01T10:48:22;4.22;;;3.80;;
30872;SDS011;17579;42.690;2.586;2023-03-01T10:53:34;5.00;;;3.80;;
30872;SDS011;17579;42.690;2.586;2023-03-01T10:56:09;4.00;;;3.60;;
30872;SDS011;17579;42.690;2.586;2023-03-01T10:58:38;5.03;;;4.45;;
30872;SDS011;17579;42.690;2.586;2023-03-01T11:01:25;4.45;;;4.05;;
30872;SDS011;17579;42.690;2.586;2023-03-01T11:06:20;5.75;;;4.70;;
30872;SDS011;17579;42.690;2.586;2023-03-01T11:08:48;4.45;;;4.05;;
30872;SDS011;17579;42.690;2.586;2023-03-01T11:11:20;4.80;;;4.30;;
30872;SDS011;17579;42.690;2.586;2023-03-01T11:13:51;4.95;;;3.58;;
30872;SDS011;17579;42.690;2.586;2023-03-01T11:16:48;4.07;;;3.67;;
30872;SDS011;17579;42.690;2.586;2023-03-01T11:21:33;4.25;;;3.85;;
30872;SDS011;17579;42.690;2.586;2023-03-01T11:24:02;4.13;;;3.65;;
30872;SDS011;17579;42.690;2.586;2023-03-01T11:26:31;4.93;;;4.18;;
30872;SDS011;17579;42.690;2.586;2023-03-01T11:29:02;3.83;;;3.42;;
30872;SDS011;17579;42.690;2.586;2023-03-01T11:31:32;4.82;;;3.92;;
30872;SDS011;17579;42.690;2.586;2023-03-01T11:34:00;4.03;;;3.58;;
30872;SDS011;17579;42.690;2.586;2023-03-01T11:36:35;3.97;;;3.65;;
30872;SDS011;17579;42.690;2.586;2023-03-01T11:39:05;4.60;;;3.88;;
30872;SDS011;17579;42.690;2.586;2023-03-01T11:42:03;6.18;;;4.47;;
30872;SDS011;17579;42.690;2.586;2023-03-01T11:44:37;3.67;;;3.33;;
30872;SDS011;17579;42.690;2.586;2023-03-01T11:47:21;5.40;;;3.50;;
30872;SDS011;17579;42.690;2.586;2023-03-01T11:52:37;5.90;;;4.10;;
30872;SDS011;17579;42.690;2.586;2023-03-01T11:55:24;3.42;;;3.13;;
30872;SDS011;17579;42.690;2.586;2023-03-01T12:00:47;3.92;;;3.53;;
30872;SDS011;17579;42.690;2.586;2023-03-01T12:03:31;4.35;;;3.70;;
30872;SDS011;17579;42.690;2.586;2023-03-01T12:06:03;3.92;;;3.63;;
30872;SDS011;17579;42.690;2.586;2023-03-01T12:08:33;4.00;;;3.58;;
30872;SDS011;17579;42.690;2.586;2023-03-01T12:11:10;4.15;;;3.83;;
30872;SDS011;17579;42.690;2.586;2023-03-01T12:16:09;3.88;;;3.38;;
30872;SDS011;17579;42.690;2.586;2023-03-01T12:18:49;3.60;;;3.30;;
30872;SDS011;17579;42.690;2.586;2023-03-01T12:21:21;3.97;;;3.30;;
30872;SDS011;17579;42.690;2.586;2023-03-01T12:24:14;3.50;;;3.20;;
30872;SDS011;17579;42.690;2.586;2023-03-01T12:27:01;3.78;;;3.45;;
30872;SDS011;17579;42.690;2.586;2023-03-01T12:32:02;3.80;;;3.42;;
30872;SDS011;17579;42.690;2.586;2023-03-01T12:34:43;4.25;;;3.28;;
30872;SDS011;17579;42.690;2.586;2023-03-01T12:42:25;4.47;;;3.17;;
30872;SDS011;17579;42.690;2.586;2023-03-01T12:47:26;3.17;;;2.90;;
30872;SDS011;17579;42.690;2.586;2023-03-01T12:52:47;4.22;;;3.83;;
30872;SDS011;17579;42.690;2.586;2023-03-01T12:55:20;3.88;;;3.47;;
30872;SDS011;17579;42.690;2.586;2023-03-01T13:06:47;4.20;;;3.65;;
30872;SDS011;17579;42.690;2.586;2023-03-01T13:09:19;3.50;;;3.20;;
30872;SDS011;17579;42.690;2.586;2023-03-01T13:11:55;4.13;;;3.72;;
30872;SDS011;17579;42.690;2.586;2023-03-01T13:14:36;4.25;;;3.80;;
30872;SDS011;17579;42.690;2.586;2023-03-01T13:17:02;4.10;;;3.80;;
30872;SDS011;17579;42.690;2.586;2023-03-01T13:19:28;3.72;;;3.42;;
30872;SDS011;17579;42.690;2.586;2023-03-01T13:21:55;4.20;;;3.75;;
30872;SDS011;17579;42.690;2.586;2023-03-01T13:29:25;3.60;;;2.90;;
30872;SDS011;17579;42.690;2.586;2023-03-01T13:31:55;3.45;;;3.15;;
30872;SDS011;17579;42.690;2.586;2023-03-01T13:36:49;3.50;;;3.20;;
30872;SDS011;17579;42.690;2.586;2023-03-01T13:41:50;3.42;;;3.13;;
30872;SDS011;17579;42.690;2.586;2023-03-01T13:44:20;4.28;;;3.28;;
30872;SDS011;17579;42.690;2.586;2023-03-01T13:49:23;4.80;;;3.58;;
30872;SDS011;17579;42.690;2.586;2023-03-01T13:51:52;3.72;;;3.42;;
30872;SDS011;17579;42.690;2.586;2023-03-01T13:54:24;3.63;;;3.33;;
30872;SDS011;17579;42.690;2.586;2023-03-01T13:56:53;3.97;;;3.58;;
30872;SDS011;17579;42.690;2.586;2023-03-01T13:59:21;4.20;;;3.80;;
30872;SDS011;17579;42.690;2.586;2023-03-01T14:04:32;3.92;;;3.00;;
30872;SDS011;17579;42.690;2.586;2023-03-01T14:09:27;3.75;;;3.28;;
30872;SDS011;17579;42.690;2.586;2023-03-01T14:12:00;3.35;;;3.05;;
30872;SDS011;17579;42.690;2.586;2023-03-01T14:14:43;3.53;;;3.22;;
30872;SDS011;17579;42.690;2.586;2023-03-01T14:17:15;3.97;;;3.67;;
30872;SDS011;17579;42.690;2.586;2023-03-01T14:19:45;5.10;;;3.20;;
30872;SDS011;17579;42.690;2.586;2023-03-01T14:24:57;3.58;;;3.28;;
30872;SDS011;17579;42.690;2.586;2023-03-01T14:27:27;3.80;;;3.47;;
30872;SDS011;17579;42.690;2.586;2023-03-01T14:32:33;3.55;;;3.15;;
30872;SDS011;17579;42.690;2.586;2023-03-01T14:35:00;5.43;;;3.70;;
30872;SDS011;17579;42.690;2.586;2023-03-01T14:37:34;6.28;;;3.50;;
30872;SDS011;17579;42.690;2.586;2023-03-01T14:40:01;4.55;;;3.88;;
30872;SDS011;17579;42.690;2.586;2023-03-01T14:42:30;4.22;;;3.90;;
30872;SDS011;17579;42.690;2.586;2023-03-01T14:45:00;4.18;;;3.40;;
30872;SDS011;17579;42.690;2.586;2023-03-01T14:47:28;4.00;;;3.55;;
30872;SDS011;17579;42.690;2.586;2023-03-01T14:52:25;4.65;;;3.83;;
30872;SDS011;17579;42.690;2.586;2023-03-01T14:54:59;5.45;;;4.15;;
30872;SDS011;17579;42.690;2.586;2023-03-01T14:57:25;3.83;;;3.40;;
30872;SDS011;17579;42.690;2.586;2023-03-01T14:59:52;5.68;;;3.85;;
30872;SDS011;17579;42.690;2.586;2023-03-01T15:02:21;4.95;;;3.80;;
30872;SDS011;17579;42.690;2.586;2023-03-01T15:04:51;4.22;;;3.80;;
30872;SDS011;17579;42.690;2.586;2023-03-01T15:07:21;5.97;;;3.85;;
30872;SDS011;17579;42.690;2.586;2023-03-01T15:09:51;3.90;;;3.60;;
30872;SDS011;17579;42.690;2.586;2023-03-01T15:14:44;4.28;;;3.80;;
30872;SDS011;17579;42.690;2.586;2023-03-01T15:17:18;4.55;;;4.13;;
30872;SDS011;17579;42.690;2.586;2023-03-01T15:19:51;4.00;;;3.70;;
30872;SDS011;17579;42.690;2.586;2023-03-01T15:22:16;5.60;;;4.13;;
30872;SDS011;17579;42.690;2.586;2023-03-01T15:24:46;4.57;;;4.18;;
30872;SDS011;17579;42.690;2.586;2023-03-01T15:27:15;5.10;;;3.95;;
30872;SDS011;17579;42.690;2.586;2023-03-01T15:29:48;4.57;;;4.00;;
30872;SDS011;17579;42.690;2.586;2023-03-01T15:34:43;3.63;;;3.33;;
30872;SDS011;17579;42.690;2.586;2023-03-01T15:39:56;5.68;;;4.22;;
30872;SDS011;17579;42.690;2.586;2023-03-01T15:44:49;5.88;;;3.95;;
30872;SDS011;17579;42.690;2.586;2023-03-01T15:49:42;4.40;;;4.00;;
30872;SDS011;17579;42.690;2.586;2023-03-01T15:52:10;4.78;;;4.20;;
30872;SDS011;17579;42.690;2.586;2023-03-01T15:54:44;4.38;;;3.97;;
30872;SDS011;17579;42.690;2.586;2023-03-01T15:57:12;5.22;;;4.55;;
30872;SDS011;17579;42.690;2.586;2023-03-01T15:59:40;5.93;;;4.82;;
30872;SDS011;17579;42.690;2.586;2023-03-01T16:02:08;4.88;;;4.05;;
30872;SDS011;17579;42.690;2.586;2023-03-01T16:04:35;4.43;;;4.00;;
30872;SDS011;17579;42.690;2.586;2023-03-01T16:07:01;4.53;;;4.05;;
30872;SDS011;17579;42.690;2.586;2023-03-01T16:09:27;4.85;;;4.45;;
30872;SDS011;17579;42.690;2.586;2023-03-01T16:11:53;5.05;;;4.65;;
30872;SDS011;17579;42.690;2.586;2023-03-01T16:14:19;5.22;;;4.60;;
30872;SDS011;17579;42.690;2.586;2023-03-01T16:16:45;4.85;;;4.40;;
30872;SDS011;17579;42.690;2.586;2023-03-01T16:19:13;6.10;;;4.70;;
30872;SDS011;17579;42.690;2.586;2023-03-01T16:21:39;5.57;;;4.40;;
30872;SDS011;17579;42.690;2.586;2023-03-01T16:24:05;4.65;;;4.15;;
30872;SDS011;17579;42.690;2.586;2023-03-01T16:26:31;5.88;;;4.57;;
30872;SDS011;17579;42.690;2.586;2023-03-01T16:28:57;5.45;;;4.70;;
30872;SDS011;17579;42.690;2.586;2023-03-01T16:31:23;5.32;;;4.82;;
30872;SDS011;17579;42.690;2.586;2023-03-01T16:33:53;4.80;;;4.28;;
30872;SDS011;17579;42.690;2.586;2023-03-01T16:36:20;4.45;;;4.05;;
30872;SDS011;17579;42.690;2.586;2023-03-01T16:38:48;6.80;;;4.45;;
30872;SDS011;17579;42.690;2.586;2023-03-01T16:41:15;4.82;;;4.32;;